Time;durP1;ratioP1;P1;durP2;ratioP2;P2;SDS_P1;SDS_P2;PMS_P1;PMS_P2;Temp;Humidity;BMP_temperature;BMP_pressure;BME280_temperature;BME280_humidity;BME280_pressure;Samples;Min_cycle;Max_cycle;Signal;HPM_P1;HPM_P2
2021/06/28 00:00:33;;;;;;;9.55;7.82;;;;;;;;;;6190034;23;20029;-84
2021/06/28 00:03:00;;;;;;;7.88;6.90;;;;;;;;;;6189344;23;20079;-84
2021/06/28 00:05:26;;;;;;;8.85;7.93;;;;;;;;;;6190193;23;20068;-84
2021/06/28 00:07:54;;;;;;;11.23;7.30;;;;;;;;;;6213523;23;20029;-84
2021/06/28 00:10:22;;;;;;;13.05;8.68;;;;;;;;;;6189786;23;20109;-84
2021/06/28 00:12:50;;;;;;;9.73;8.18;;;;;;;;;;6191727;23;20153;-85
2021/06/28 00:15:22;;;;;;;10.80;8.02;;;;;;;;;;6189936;23;20323;-85
2021/06/28 00:17:49;;;;;;;11.07;8.30;;;;;;;;;;6188281;23;20025;-83
2021/06/28 00:20:17;;;;;;;10.95;8.63;;;;;;;;;;6190287;23;20067;-85
2021/06/28 00:22:45;;;;;;;12.77;8.32;;;;;;;;;;6214577;23;20025;-83
2021/06/28 00:25:12;;;;;;;11.40;8.82;;;;;;;;;;6190261;23;20063;-85
2021/06/28 00:27:42;;;;;;;9.50;8.30;;;;;;;;;;6189961;23;20096;-85
2021/06/28 00:30:25;;;;;;;12.30;8.80;;;;;;;;;;6189377;23;20100;-83
2021/06/28 00:32:52;;;;;;;11.18;8.68;;;;;;;;;;6213042;23;20037;-83
2021/06/28 00:35:20;;;;;;;11.80;8.15;;;;;;;;;;6213274;23;20028;-84
2021/06/28 00:37:47;;;;;;;13.82;8.70;;;;;;;;;;6191516;23;20040;-83
2021/06/28 00:40:14;;;;;;;11.52;9.02;;;;;;;;;;6192615;23;20075;-84
2021/06/28 00:42:47;;;;;;;10.50;8.70;;;;;;;;;;6189727;23;20017;-84
2021/06/28 00:45:15;;;;;;;10.50;8.88;;;;;;;;;;6218189;23;20398;-84
2021/06/28 00:47:42;;;;;;;11.38;8.85;;;;;;;;;;6220055;23;20300;-84
2021/06/28 00:50:09;;;;;;;11.65;8.32;;;;;;;;;;6220167;23;20362;-84
2021/06/28 00:52:37;;;;;;;11.70;8.45;;;;;;;;;;6194234;23;20083;-84
2021/06/28 00:55:05;;;;;;;10.68;8.63;;;;;;;;;;6220408;23;20025;-84
2021/06/28 00:57:32;;;;;;;11.30;9.05;;;;;;;;;;6220447;23;20085;-84
2021/06/28 00:59:59;;;;;;;11.05;8.93;;;;;;;;;;6219334;23;20107;-84
2021/06/28 01:02:26;;;;;;;10.75;8.63;;;;;;;;;;6221328;23;20099;-84
2021/06/28 01:04:53;;;;;;;13.02;9.20;;;;;;;;;;6221157;23;20025;-84
2021/06/28 01:07:19;;;;;;;13.27;8.68;;;;;;;;;;6221989;23;20079;-84
2021/06/28 01:09:46;;;;;;;12.48;9.27;;;;;;;;;;6220402;23;20024;-84
2021/06/28 01:12:13;;;;;;;11.60;9.63;;;;;;;;;;6222276;23;20226;-84
2021/06/28 01:14:43;;;;;;;13.63;9.52;;;;;;;;;;6222123;23;20047;-84
2021/06/28 01:17:12;;;;;;;12.20;8.77;;;;;;;;;;6220429;23;20068;-84
2021/06/28 01:19:45;;;;;;;13.10;9.45;;;;;;;;;;6218875;23;20024;-84
2021/06/28 01:22:16;;;;;;;14.82;9.55;;;;;;;;;;6217767;23;20119;-84
2021/06/28 01:24:43;;;;;;;13.93;9.23;;;;;;;;;;6215606;23;20099;-83
2021/06/28 01:27:09;;;;;;;12.45;8.98;;;;;;;;;;6217319;23;20051;-84
2021/06/28 01:29:36;;;;;;;15.20;9.38;;;;;;;;;;6216840;23;20036;-84
2021/06/28 01:32:06;;;;;;;12.10;9.23;;;;;;;;;;6215536;23;20035;-85
2021/06/28 01:34:33;;;;;;;12.18;9.35;;;;;;;;;;6215969;23;20038;-84
2021/06/28 01:37:10;;;;;;;11.15;8.65;;;;;;;;;;6216510;23;20032;-84
2021/06/28 01:39:38;;;;;;;11.18;8.02;;;;;;;;;;6217136;23;20035;-84
2021/06/28 01:42:05;;;;;;;17.05;10.80;;;;;;;;;;6216881;23;20317;-84
2021/06/28 01:44:31;;;;;;;11.82;8.18;;;;;;;;;;6217534;23;20024;-84
2021/06/28 01:46:59;;;;;;;10.18;8.52;;;;;;;;;;6210913;23;20052;-84
2021/06/28 01:49:25;;;;;;;14.35;9.05;;;;;;;;;;6186813;23;20017;-84
2021/06/28 01:51:54;;;;;;;12.48;9.30;;;;;;;;;;6210694;23;20083;-84
2021/06/28 01:54:21;;;;;;;13.32;9.23;;;;;;;;;;6188204;23;20029;-84
2021/06/28 01:56:51;;;;;;;15.00;8.88;;;;;;;;;;6212784;23;20033;-84
2021/06/28 01:59:17;;;;;;;12.13;8.70;;;;;;;;;;6187777;23;20035;-84
2021/06/28 02:01:44;;;;;;;11.25;8.88;;;;;;;;;;6187937;23;20076;-84
2021/06/28 02:04:16;;;;;;;15.38;10.23;;;;;;;;;;6211365;23;20048;-84
2021/06/28 02:06:47;;;;;;;15.27;9.35;;;;;;;;;;6188172;23;20079;-84
2021/06/28 02:09:14;;;;;;;13.55;9.35;;;;;;;;;;6186241;23;20024;-84
2021/06/28 02:11:40;;;;;;;13.25;9.15;;;;;;;;;;6186871;23;20076;-84
2021/06/28 02:14:10;;;;;;;13.52;9.07;;;;;;;;;;6210305;23;20338;-84
2021/06/28 02:16:44;;;;;;;16.75;9.82;;;;;;;;;;6186684;23;20291;-84
2021/06/28 02:19:12;;;;;;;11.38;8.82;;;;;;;;;;6183467;23;20406;-84
2021/06/28 02:21:42;;;;;;;15.77;9.27;;;;;;;;;;6187015;23;20079;-84
2021/06/28 02:24:08;;;;;;;13.60;9.48;;;;;;;;;;6187268;23;20025;-84
2021/06/28 02:26:39;;;;;;;12.65;8.85;;;;;;;;;;6185823;23;20025;-84
2021/06/28 02:29:06;;;;;;;12.77;9.13;;;;;;;;;;6185171;23;20356;-84
2021/06/28 02:31:33;;;;;;;15.52;9.18;;;;;;;;;;6187428;23;20025;-84
2021/06/28 02:34:03;;;;;;;13.15;10.07;;;;;;;;;;6185888;23;20056;-84
2021/06/28 02:36:32;;;;;;;12.07;8.43;;;;;;;;;;6187382;23;20068;-83
2021/06/28 02:38:59;;;;;;;15.85;8.77;;;;;;;;;;6210737;23;20101;-83
2021/06/28 02:41:29;;;;;;;12.27;9.50;;;;;;;;;;6188417;23;20072;-83
2021/06/28 02:44:05;;;;;;;14.02;9.93;;;;;;;;;;6188312;23;20021;-84
2021/06/28 02:46:32;;;;;;;13.93;10.02;;;;;;;;;;6186534;23;20025;-84
2021/06/28 02:48:59;;;;;;;15.63;9.48;;;;;;;;;;6161335;23;20033;-83
2021/06/28 02:51:26;;;;;;;12.65;9.82;;;;;;;;;;6162778;23;20052;-84
2021/06/28 02:53:53;;;;;;;11.52;8.98;;;;;;;;;;6163014;23;20029;-84
2021/06/28 02:56:20;;;;;;;14.95;9.85;;;;;;;;;;6187693;23;20565;-84
2021/06/28 02:58:51;;;;;;;15.02;9.52;;;;;;;;;;6163933;23;20115;-84
2021/06/28 03:01:28;;;;;;;14.27;9.00;;;;;;;;;;6162882;23;20025;-84
2021/06/28 03:03:55;;;;;;;17.13;10.07;;;;;;;;;;6162650;23;20076;-84
2021/06/28 03:06:22;;;;;;;15.93;10.30;;;;;;;;;;6162729;23;20116;-83
2021/06/28 03:08:49;;;;;;;17.40;10.55;;;;;;;;;;6164038;23;20025;-83
2021/06/28 03:11:17;;;;;;;17.42;10.98;;;;;;;;;;6199271;23;20033;-83
2021/06/28 03:13:43;;;;;;;13.57;10.13;;;;;;;;;;6180565;23;20013;-84
2021/06/28 03:16:10;;;;;;;18.58;9.50;;;;;;;;;;6168386;23;20410;-84
2021/06/28 03:18:37;;;;;;;19.27;9.57;;;;;;;;;;6163274;23;20032;-84
2021/06/28 03:21:07;;;;;;;17.33;9.55;;;;;;;;;;6163519;23;20033;-84
2021/06/28 03:23:35;;;;;;;17.75;10.15;;;;;;;;;;6190814;23;20262;-83
2021/06/28 03:26:01;;;;;;;14.82;10.20;;;;;;;;;;6186934;23;20045;-84
2021/06/28 03:28:28;;;;;;;18.30;10.80;;;;;;;;;;6162221;23;20021;-84
2021/06/28 03:30:58;;;;;;;14.35;10.35;;;;;;;;;;6163080;23;20029;-83
2021/06/28 03:33:24;;;;;;;16.30;10.90;;;;;;;;;;6187507;23;20370;-83
2021/06/28 03:35:51;;;;;;;18.25;10.20;;;;;;;;;;6188107;23;20029;-83
2021/06/28 03:38:21;;;;;;;19.55;10.38;;;;;;;;;;6186919;23;20055;-85
2021/06/28 03:40:47;;;;;;;14.23;9.02;;;;;;;;;;6162567;23;20060;-84
2021/06/28 03:43:14;;;;;;;17.48;9.75;;;;;;;;;;6190665;23;20036;-84
2021/06/28 03:45:41;;;;;;;14.23;9.98;;;;;;;;;;6199519;23;20028;-84
2021/06/28 03:48:14;;;;;;;20.70;10.02;;;;;;;;;;6216890;23;20296;-84
2021/06/28 03:50:42;;;;;;;15.23;10.73;;;;;;;;;;6215682;23;20029;-84
2021/06/28 03:53:09;;;;;;;15.38;9.82;;;;;;;;;;6189770;23;20024;-83
2021/06/28 03:55:36;;;;;;;17.25;10.35;;;;;;;;;;6216055;23;20029;-84
2021/06/28 03:58:03;;;;;;;12.50;9.07;;;;;;;;;;6218214;23;20179;-84
2021/06/28 04:00:30;;;;;;;19.48;11.20;;;;;;;;;;6216507;23;20021;-84
2021/06/28 04:03:02;;;;;;;16.67;10.32;;;;;;;;;;6192664;23;20031;-84
2021/06/28 04:05:28;;;;;;;16.35;11.13;;;;;;;;;;6218873;23;20035;-84
2021/06/28 04:07:55;;;;;;;18.45;10.80;;;;;;;;;;6193677;23;20402;-84
2021/06/28 04:10:22;;;;;;;17.02;10.63;;;;;;;;;;6220227;23;20024;-84
2021/06/28 04:12:53;;;;;;;18.63;11.20;;;;;;;;;;6198043;23;20051;-83
2021/06/28 04:15:20;;;;;;;17.98;10.23;;;;;;;;;;6195684;23;20025;-84
2021/06/28 04:17:48;;;;;;;17.95;10.75;;;;;;;;;;6197259;23;20024;-85
2021/06/28 04:20:37;;;;;;;20.23;10.27;;;;;;;;;;6229437;23;20039;-85
2021/06/28 04:23:04;;;;;;;15.27;10.30;;;;;;;;;;6229412;23;20020;-84
2021/06/28 04:25:34;;;;;;;15.93;10.07;;;;;;;;;;6227834;23;20075;-84
2021/06/28 04:28:19;;;;;;;15.88;10.75;;;;;;;;;;6223387;23;20024;-82
2021/06/28 04:30:46;;;;;;;16.60;10.35;;;;;;;;;;6217844;23;20024;-83
2021/06/28 04:33:13;;;;;;;14.85;10.35;;;;;;;;;;6191500;23;20454;-85
2021/06/28 04:35:39;;;;;;;13.15;10.10;;;;;;;;;;6196880;23;20028;-84
2021/06/28 04:38:17;;;;;;;15.07;10.48;;;;;;;;;;6223047;23;20028;-83
2021/06/28 04:40:43;;;;;;;17.77;9.48;;;;;;;;;;6194077;23;20056;-84
2021/06/28 04:43:10;;;;;;;16.73;9.65;;;;;;;;;;6219479;23;20330;-83
2021/06/28 04:45:37;;;;;;;14.98;10.32;;;;;;;;;;6209982;23;20040;-83
2021/06/28 04:48:11;;;;;;;13.10;9.05;;;;;;;;;;6184503;23;20045;-83
2021/06/28 04:50:37;;;;;;;15.27;9.48;;;;;;;;;;6186835;23;20025;-84
2021/06/28 04:53:04;;;;;;;14.05;9.45;;;;;;;;;;6210631;23;20103;-83
2021/06/28 04:55:31;;;;;;;14.98;10.57;;;;;;;;;;6188405;23;20032;-85
2021/06/28 04:57:58;;;;;;;12.98;8.82;;;;;;;;;;6186794;23;20362;-84
2021/06/28 05:00:25;;;;;;;14.05;9.60;;;;;;;;;;6210603;23;20181;-83
2021/06/28 05:02:52;;;;;;;10.95;8.52;;;;;;;;;;6184863;23;20025;-84
2021/06/28 05:05:19;;;;;;;12.15;9.98;;;;;;;;;;6184368;23;20056;-84
2021/06/28 05:07:49;;;;;;;13.88;9.20;;;;;;;;;;6208992;23;20024;-84
2021/06/28 05:10:22;;;;;;;21.10;9.50;;;;;;;;;;6209811;23;20045;-84
2021/06/28 05:12:49;;;;;;;12.43;8.73;;;;;;;;;;6186039;23;20080;-84
2021/06/28 05:15:15;;;;;;;14.65;8.57;;;;;;;;;;6187463;23;20060;-85
2021/06/28 05:17:43;;;;;;;17.10;9.90;;;;;;;;;;6186444;23;20077;-84
2021/06/28 05:20:11;;;;;;;13.50;8.45;;;;;;;;;;6207024;23;20025;-84
2021/06/28 05:22:39;;;;;;;10.07;8.45;;;;;;;;;;6185508;23;20067;-84
2021/06/28 05:25:10;;;;;;;11.00;8.32;;;;;;;;;;6186991;23;20013;-83
2021/06/28 05:27:38;;;;;;;13.13;9.02;;;;;;;;;;6187993;23;20025;-83
2021/06/28 05:30:19;;;;;;;13.85;8.90;;;;;;;;;;6184581;23;20198;-83
2021/06/28 05:32:49;;;;;;;14.75;9.63;;;;;;;;;;6184635;23;20053;-83
2021/06/28 05:35:17;;;;;;;11.30;8.45;;;;;;;;;;6186405;23;20028;-84
2021/06/28 05:37:44;;;;;;;13.77;9.30;;;;;;;;;;6210196;23;20342;-84
2021/06/28 05:40:11;;;;;;;19.38;9.50;;;;;;;;;;6194033;23;20245;-84
2021/06/28 05:42:44;;;;;;;12.73;9.07;;;;;;;;;;6189386;23;20040;-86
2021/06/28 05:45:14;;;;;;;13.18;9.75;;;;;;;;;;6192669;23;20051;-85
2021/06/28 05:47:43;;;;;;;13.73;8.85;;;;;;;;;;6218598;23;20024;-84
2021/06/28 05:50:13;;;;;;;13.20;9.93;;;;;;;;;;6222641;23;20024;-84
2021/06/28 05:52:50;;;;;;;14.48;9.50;;;;;;;;;;6221137;23;20071;-84
2021/06/28 05:55:16;;;;;;;14.43;9.13;;;;;;;;;;6222718;23;20024;-85
2021/06/28 05:57:43;;;;;;;15.20;8.82;;;;;;;;;;6220918;23;20025;-84
2021/06/28 06:00:11;;;;;;;12.80;9.45;;;;;;;;;;6217705;23;20082;-83
2021/06/28 06:02:39;;;;;;;13.45;9.18;;;;;;;;;;6193734;23;20017;-85
2021/06/28 06:05:08;;;;;;;16.02;9.40;;;;;;;;;;6224625;23;20025;-83
2021/06/28 06:07:35;;;;;;;14.23;8.48;;;;;;;;;;6220331;23;20076;-84
2021/06/28 06:10:03;;;;;;;13.40;9.32;;;;;;;;;;6220384;23;20054;-84
2021/06/28 06:12:30;;;;;;;11.35;8.65;;;;;;;;;;6220356;23;20111;-84
2021/06/28 06:14:57;;;;;;;11.88;8.13;;;;;;;;;;6221382;23;20087;-84
2021/06/28 06:17:23;;;;;;;13.85;9.05;;;;;;;;;;6220349;23;20035;-86
2021/06/28 06:19:53;;;;;;;14.48;9.15;;;;;;;;;;6219278;23;20103;-84
2021/06/28 06:22:20;;;;;;;13.27;9.25;;;;;;;;;;6221376;23;20566;-84
2021/06/28 06:24:46;;;;;;;17.15;9.45;;;;;;;;;;6219312;23;20078;-83
2021/06/28 06:27:13;;;;;;;13.88;9.20;;;;;;;;;;6221483;23;20040;-83
2021/06/28 06:29:41;;;;;;;12.25;8.73;;;;;;;;;;6220015;23;20426;-82
2021/06/28 06:32:08;;;;;;;13.30;9.77;;;;;;;;;;6219922;23;20342;-84
2021/06/28 06:34:34;;;;;;;14.27;9.23;;;;;;;;;;6228007;23;20039;-83
2021/06/28 06:37:01;;;;;;;11.35;9.13;;;;;;;;;;6232295;23;20180;-85
2021/06/28 06:39:29;;;;;;;15.00;9.27;;;;;;;;;;6232338;23;20376;-84
2021/06/28 06:41:56;;;;;;;12.25;8.25;;;;;;;;;;6216247;23;20070;-84
2021/06/28 06:44:22;;;;;;;16.73;9.15;;;;;;;;;;6228427;23;20044;-83
2021/06/28 06:46:49;;;;;;;11.25;8.48;;;;;;;;;;6216153;23;20025;-85
2021/06/28 06:49:17;;;;;;;12.00;8.32;;;;;;;;;;6190234;23;20068;-83
2021/06/28 06:51:43;;;;;;;12.90;8.93;;;;;;;;;;6188213;23;20082;-86
2021/06/28 06:54:10;;;;;;;14.00;9.25;;;;;;;;;;6213486;23;20053;-84
2021/06/28 06:56:40;;;;;;;20.98;9.05;;;;;;;;;;6213023;23;20025;-84
2021/06/28 06:59:10;;;;;;;13.07;7.70;;;;;;;;;;6217025;22;20060;-84
2021/06/28 07:01:42;;;;;;;13.00;9.20;;;;;;;;;;6190413;23;20040;-84
2021/06/28 07:04:09;;;;;;;10.77;8.05;;;;;;;;;;6189710;23;20036;-85
2021/06/28 07:06:39;;;;;;;11.27;8.40;;;;;;;;;;6210972;23;20102;-84
2021/06/28 07:09:06;;;;;;;11.80;8.60;;;;;;;;;;6189824;23;20072;-84
2021/06/28 07:11:33;;;;;;;10.98;8.10;;;;;;;;;;6190808;23;20049;-85
2021/06/28 07:14:05;;;;;;;11.13;9.07;;;;;;;;;;6190648;23;20029;-87
2021/06/28 07:16:32;;;;;;;10.90;8.63;;;;;;;;;;6213312;23;20040;-84
2021/06/28 07:19:00;;;;;;;12.65;8.90;;;;;;;;;;6191683;23;20214;-85
2021/06/28 07:21:27;;;;;;;11.75;9.02;;;;;;;;;;6187121;23;20052;-84
2021/06/28 07:24:03;;;;;;;19.40;9.18;;;;;;;;;;6188389;23;20079;-85
2021/06/28 07:26:30;;;;;;;12.45;9.00;;;;;;;;;;6186943;23;20025;-85
2021/06/28 07:28:57;;;;;;;11.05;8.25;;;;;;;;;;6184613;23;20025;-84
2021/06/28 07:31:24;;;;;;;14.55;8.57;;;;;;;;;;6187925;23;20095;-85
2021/06/28 07:39:58;;;;;;;13.80;8.07;;;;;;;;;;6280722;22;20018;-83
2021/06/28 07:42:25;;;;;;;11.75;7.90;;;;;;;;;;6250515;22;20023;-85
2021/06/28 07:44:52;;;;;;;13.57;7.75;;;;;;;;;;6282128;22;20095;-82
2021/06/28 07:47:25;;;;;;;9.80;8.32;;;;;;;;;;6282996;22;20065;-85
2021/06/28 07:49:54;;;;;;;10.48;8.15;;;;;;;;;;6280734;22;20023;-84
2021/06/28 07:52:20;;;;;;;12.30;8.50;;;;;;;;;;6254520;22;20020;-84
2021/06/28 07:54:48;;;;;;;13.70;8.65;;;;;;;;;;6281947;22;20015;-83
2021/06/28 07:57:15;;;;;;;9.02;7.68;;;;;;;;;;6282337;22;20039;-85
2021/06/28 07:59:42;;;;;;;9.98;7.70;;;;;;;;;;6277894;22;20408;-84
2021/06/28 08:02:08;;;;;;;9.00;6.65;;;;;;;;;;6251044;22;20038;-85
2021/06/28 08:04:35;;;;;;;17.85;7.28;;;;;;;;;;6249941;22;20046;-84
2021/06/28 08:07:03;;;;;;;10.68;7.18;;;;;;;;;;6276660;22;20107;-83
2021/06/28 08:09:31;;;;;;;12.32;7.25;;;;;;;;;;6252524;22;20024;-85
2021/06/28 08:11:59;;;;;;;10.57;6.93;;;;;;;;;;6226760;22;20028;-84
2021/06/28 08:14:27;;;;;;;10.52;7.18;;;;;;;;;;6278631;22;20054;-84
2021/06/28 08:16:56;;;;;;;10.25;6.72;;;;;;;;;;6283537;22;20024;-84
2021/06/28 08:19:26;;;;;;;8.65;6.55;;;;;;;;;;6255059;22;20034;-85
2021/06/28 08:22:00;;;;;;;8.25;6.07;;;;;;;;;;6286092;22;20212;-84
2021/06/28 08:24:28;;;;;;;9.48;6.18;;;;;;;;;;6278953;22;20024;-84
2021/06/28 08:27:07;;;;;;;6.55;5.93;;;;;;;;;;6231546;22;20446;-84
2021/06/28 08:29:34;;;;;;;12.18;6.53;;;;;;;;;;6276359;22;20054;-85
2021/06/28 08:32:01;;;;;;;11.60;6.13;;;;;;;;;;6222841;22;20055;-85
2021/06/28 08:34:28;;;;;;;12.38;6.53;;;;;;;;;;6247491;22;20240;-85
2021/06/28 08:37:04;;;;;;;6.90;6.03;;;;;;;;;;6272941;22;20431;-84
2021/06/28 08:39:31;;;;;;;8.07;6.80;;;;;;;;;;6239809;23;20056;-85
2021/06/28 08:42:03;;;;;;;8.00;6.72;;;;;;;;;;6243386;23;20279;-85
2021/06/28 08:44:40;;;;;;;11.52;6.82;;;;;;;;;;6217334;23;20024;-85
2021/06/28 08:47:10;;;;;;;9.98;6.70;;;;;;;;;;6228000;23;20123;-84
2021/06/28 08:49:50;;;;;;;6.85;5.70;;;;;;;;;;6250624;22;20095;-85
2021/06/28 08:52:25;;;;;;;8.63;5.72;;;;;;;;;;6223365;23;20012;-84
2021/06/28 08:54:53;;;;;;;8.55;6.15;;;;;;;;;;6222038;23;20236;-84
2021/06/28 08:57:23;;;;;;;5.68;5.07;;;;;;;;;;6223165;23;20108;-83
2021/06/28 08:59:50;;;;;;;6.93;5.20;;;;;;;;;;6242023;23;20161;-84
2021/06/28 09:02:18;;;;;;;6.93;4.25;;;;;;;;;;6243079;23;20024;-85
2021/06/28 09:05:20;;;;;;;8.77;4.97;;;;;;;;;;6243977;23;20086;-84
2021/06/28 09:07:49;;;;;;;13.55;4.80;;;;;;;;;;6218094;23;20024;-83
2021/06/28 09:10:36;;;;;;;5.60;4.03;;;;;;;;;;6219123;23;20413;-84
2021/06/28 09:13:07;;;;;;;4.93;4.15;;;;;;;;;;6217051;23;20028;-85
2021/06/28 09:15:52;;;;;;;7.30;3.58;;;;;;;;;;6216574;23;20027;-83
2021/06/28 09:18:21;;;;;;;5.05;4.03;;;;;;;;;;6217840;23;20504;-83
2021/06/28 09:20:50;;;;;;;7.30;4.65;;;;;;;;;;6217088;23;20024;-84
2021/06/28 09:23:22;;;;;;;8.85;4.30;;;;;;;;;;6219308;23;20024;-85
2021/06/28 09:25:49;;;;;;;8.50;4.43;;;;;;;;;;6215873;23;20259;-85
2021/06/28 09:28:29;;;;;;;5.72;4.07;;;;;;;;;;6218005;23;20405;-84
2021/06/28 09:30:56;;;;;;;8.40;4.25;;;;;;;;;;6240894;23;20048;-85
2021/06/28 09:33:22;;;;;;;8.68;4.60;;;;;;;;;;6241620;23;20024;-84
2021/06/28 09:35:49;;;;;;;10.70;4.00;;;;;;;;;;6213591;23;20129;-85
2021/06/28 09:38:32;;;;;;;5.32;3.95;;;;;;;;;;6240445;23;20143;-84
2021/06/28 09:41:18;;;;;;;6.60;3.88;;;;;;;;;;6270718;22;20106;-84
2021/06/28 09:43:45;;;;;;;5.07;3.33;;;;;;;;;;6270242;22;20161;-84
2021/06/28 09:46:15;;;;;;;4.57;3.80;;;;;;;;;;6265598;22;20023;-84
2021/06/28 09:48:52;;;;;;;8.10;3.53;;;;;;;;;;6265427;22;20141;-84
2021/06/28 09:51:19;;;;;;;4.72;3.85;;;;;;;;;;6267204;22;20169;-84
2021/06/28 09:53:50;;;;;;;7.78;3.95;;;;;;;;;;6269982;22;20087;-83
2021/06/28 09:56:30;;;;;;;4.65;3.55;;;;;;;;;;6250406;22;20214;-85
2021/06/28 09:58:56;;;;;;;5.85;3.85;;;;;;;;;;6259060;22;20028;-84
2021/06/28 10:01:26;;;;;;;5.82;3.65;;;;;;;;;;6278815;22;20440;-84
2021/06/28 10:03:55;;;;;;;7.10;3.65;;;;;;;;;;6245666;22;20220;-84
2021/06/28 10:08:50;;;;;;;4.43;3.38;;;;;;;;;;6272821;22;20022;-84
2021/06/28 10:11:22;;;;;;;5.78;3.95;;;;;;;;;;6241372;22;20043;-84
2021/06/28 10:13:53;;;;;;;4.68;3.22;;;;;;;;;;6275685;22;20073;-85
2021/06/28 10:16:22;;;;;;;4.03;3.63;;;;;;;;;;6245370;22;20498;-84
2021/06/28 10:18:49;;;;;;;3.25;2.95;;;;;;;;;;6243191;22;20038;-84
2021/06/28 10:21:16;;;;;;;6.10;3.67;;;;;;;;;;6243978;22;20043;-84
2021/06/28 10:23:44;;;;;;;3.97;3.47;;;;;;;;;;6266548;22;20032;-85
2021/06/28 10:26:11;;;;;;;5.18;3.63;;;;;;;;;;6269150;22;20035;-85
2021/06/28 10:28:38;;;;;;;3.92;3.30;;;;;;;;;;6267898;22;20231;-84
2021/06/28 10:31:06;;;;;;;4.57;3.40;;;;;;;;;;6238017;22;20023;-85
2021/06/28 10:33:33;;;;;;;5.97;3.63;;;;;;;;;;6239595;22;20427;-85
2021/06/28 10:36:02;;;;;;;4.22;3.67;;;;;;;;;;6239806;22;20028;-85
2021/06/28 10:38:47;;;;;;;8.60;4.05;;;;;;;;;;6269359;22;20024;-85
2021/06/28 10:41:34;;;;;;;4.45;3.90;;;;;;;;;;6267526;22;20028;-84
2021/06/28 10:44:01;;;;;;;7.47;3.60;;;;;;;;;;6269689;22;20038;-85
2021/06/28 10:46:33;;;;;;;5.18;3.83;;;;;;;;;;6242699;22;20034;-85
2021/06/28 10:49:00;;;;;;;4.55;3.85;;;;;;;;;;6272578;22;20027;-85
2021/06/28 10:51:39;;;;;;;8.13;4.85;;;;;;;;;;6244921;22;20032;-85
2021/06/28 10:54:07;;;;;;;4.13;3.72;;;;;;;;;;6270129;22;20054;-83
2021/06/28 10:56:34;;;;;;;4.93;4.43;;;;;;;;;;6247428;22;20035;-86
2021/06/28 10:59:04;;;;;;;6.35;4.40;;;;;;;;;;6244405;22;20404;-84
2021/06/28 11:01:45;;;;;;;5.20;4.70;;;;;;;;;;6271755;22;20352;-85
2021/06/28 11:04:27;;;;;;;6.43;4.45;;;;;;;;;;6243699;22;20123;-86
2021/06/28 11:07:03;;;;;;;4.72;3.90;;;;;;;;;;6265508;22;20264;-85
2021/06/28 11:09:33;;;;;;;6.03;4.15;;;;;;;;;;6267658;22;20049;-85
2021/06/28 11:12:01;;;;;;;4.28;3.88;;;;;;;;;;6268695;22;20078;-85
2021/06/28 11:14:30;;;;;;;5.25;4.75;;;;;;;;;;6271265;22;20024;-85
2021/06/28 11:16:58;;;;;;;5.47;4.82;;;;;;;;;;6244288;22;20173;-84
2021/06/28 11:19:51;;;;;;;4.15;3.75;;;;;;;;;;6266890;22;20028;-84
2021/06/28 11:22:27;;;;;;;6.82;3.40;;;;;;;;;;6242560;22;20130;-84
2021/06/28 11:24:57;;;;;;;5.57;3.30;;;;;;;;;;6269969;22;20028;-85
2021/06/28 11:27:27;;;;;;;3.92;3.40;;;;;;;;;;6249467;22;20028;-85
2021/06/28 11:29:55;;;;;;;5.47;3.35;;;;;;;;;;6271305;22;20024;-85
2021/06/28 11:32:28;;;;;;;5.60;3.50;;;;;;;;;;6267641;22;20024;-85
2021/06/28 11:34:55;;;;;;;3.30;3.00;;;;;;;;;;6249545;22;20034;-85
2021/06/28 11:37:26;;;;;;;4.25;3.40;;;;;;;;;;6272539;22;20313;-85
2021/06/28 11:40:00;;;;;;;6.85;3.45;;;;;;;;;;6237668;23;20028;-84
2021/06/28 11:42:33;;;;;;;4.85;4.22;;;;;;;;;;6240194;23;20023;-85
2021/06/28 11:45:11;;;;;;;6.50;3.85;;;;;;;;;;6238426;23;20313;-85
2021/06/28 11:47:43;;;;;;;6.10;3.45;;;;;;;;;;6235009;22;20024;-84
2021/06/28 11:50:25;;;;;;;4.60;3.63;;;;;;;;;;6237947;23;20024;-85
2021/06/28 11:53:03;;;;;;;5.53;3.53;;;;;;;;;;6237180;23;20024;-85
2021/06/28 11:55:31;;;;;;;4.25;3.85;;;;;;;;;;6237866;22;20136;-86
2021/06/28 11:57:59;;;;;;;6.97;3.90;;;;;;;;;;6243200;22;20024;-84
2021/06/28 12:00:46;;;;;;;5.20;3.78;;;;;;;;;;6243444;22;20028;-84
2021/06/28 12:03:15;;;;;;;5.10;3.90;;;;;;;;;;6243443;23;20032;-85
2021/06/28 12:05:43;;;;;;;5.45;3.95;;;;;;;;;;6241581;23;20051;-85
2021/06/28 12:08:12;;;;;;;4.53;3.90;;;;;;;;;;6242099;22;20228;-86
2021/06/28 12:10:40;;;;;;;5.03;4.28;;;;;;;;;;6245719;22;20126;-86
2021/06/28 12:13:11;;;;;;;4.45;4.05;;;;;;;;;;6237174;23;20082;-86
2021/06/28 12:15:38;;;;;;;6.05;3.70;;;;;;;;;;6241392;23;20028;-82
2021/06/28 12:18:18;;;;;;;4.57;3.80;;;;;;;;;;6238963;23;20082;-85
2021/06/28 12:20:56;;;;;;;5.35;3.88;;;;;;;;;;6238256;22;20267;-83
2021/06/28 12:23:23;;;;;;;5.05;4.10;;;;;;;;;;6236490;23;20201;-83
2021/06/28 12:25:49;;;;;;;6.68;3.90;;;;;;;;;;6235934;23;20414;-82
2021/06/28 12:28:35;;;;;;;5.82;3.50;;;;;;;;;;6237162;23;20035;-87
2021/06/28 12:31:15;;;;;;;4.45;3.97;;;;;;;;;;6239753;23;20046;-89
2021/06/28 12:33:42;;;;;;;6.25;3.97;;;;;;;;;;6241069;22;20398;-84
2021/06/28 12:36:17;;;;;;;8.93;3.83;;;;;;;;;;6238695;23;20032;-83
2021/06/28 12:38:44;;;;;;;8.55;3.58;;;;;;;;;;6242429;22;20024;-83
2021/06/28 12:41:11;;;;;;;6.88;3.45;;;;;;;;;;6271760;22;20034;-83
2021/06/28 12:43:37;;;;;;;5.28;3.45;;;;;;;;;;6243343;22;20027;-84
2021/06/28 12:46:07;;;;;;;4.30;3.70;;;;;;;;;;6269869;22;20356;-85
2021/06/28 12:48:33;;;;;;;5.20;3.95;;;;;;;;;;6242204;22;20023;-82
2021/06/28 12:51:04;;;;;;;3.85;3.55;;;;;;;;;;6273818;22;20297;-84
2021/06/28 12:53:32;;;;;;;7.43;3.85;;;;;;;;;;6248570;22;20505;-83
2021/06/28 12:56:20;;;;;;;3.97;3.58;;;;;;;;;;6269246;22;20075;-83
2021/06/28 12:58:52;;;;;;;13.32;4.40;;;;;;;;;;6269246;22;20023;-83
2021/06/28 13:01:35;;;;;;;8.15;4.07;;;;;;;;;;6242557;22;20027;-84
2021/06/28 13:04:19;;;;;;;4.65;3.90;;;;;;;;;;6242911;22;20543;-83
2021/06/28 13:07:01;;;;;;;4.72;3.65;;;;;;;;;;6273378;22;20027;-84
2021/06/28 13:09:31;;;;;;;5.30;3.88;;;;;;;;;;6272138;22;20405;-84
2021/06/28 13:12:03;;;;;;;4.03;3.65;;;;;;;;;;6247590;22;20016;-84
2021/06/28 13:15:18;;;;;;;4.57;3.72;;;;;;;;;;6245571;22;20365;-84
2021/06/28 13:17:30;;;;;;;7.22;3.72;;;;;;;;;;6253766;22;20178;-84
2021/06/28 13:19:58;;;;;;;6.00;3.65;;;;;;;;;;6283228;22;20051;-83
2021/06/28 13:22:42;;;;;;;7.93;3.38;;;;;;;;;;6262609;22;20071;-83
2021/06/28 13:28:34;;;;;;;5.32;3.65;;;;;;;;;;6274589;22;20030;-83
2021/06/28 13:31:03;;;;;;;4.55;4.07;;;;;;;;;;6275480;22;20024;-83
2021/06/28 13:33:30;;;;;;;4.45;4.00;;;;;;;;;;6272704;22;20039;-84
2021/06/28 13:36:10;;;;;;;4.97;3.55;;;;;;;;;;6245667;22;20057;-85
2021/06/28 13:38:51;;;;;;;5.38;4.30;;;;;;;;;;6269765;22;20201;-84
2021/06/28 13:41:21;;;;;;;5.72;3.60;;;;;;;;;;6269521;22;20074;-83
2021/06/28 13:44:06;;;;;;;5.55;3.63;;;;;;;;;;6273767;22;20051;-83
2021/06/28 13:46:35;;;;;;;4.70;3.70;;;;;;;;;;6274823;22;20058;-84
2021/06/28 13:49:17;;;;;;;5.20;3.20;;;;;;;;;;6274930;22;20024;-84
2021/06/28 13:51:44;;;;;;;5.85;2.72;;;;;;;;;;6247031;22;20205;-85
2021/06/28 13:54:14;;;;;;;4.07;2.80;;;;;;;;;;6245945;22;20036;-85
2021/06/28 13:56:41;;;;;;;4.53;2.95;;;;;;;;;;6245304;22;20140;-85
2021/06/28 13:59:07;;;;;;;3.00;2.50;;;;;;;;;;6244553;22;20283;-85
2021/06/28 14:01:35;;;;;;;2.92;2.45;;;;;;;;;;6271667;22;20067;-84
2021/06/28 14:04:05;;;;;;;2.58;2.15;;;;;;;;;;6273730;22;20023;-85
2021/06/28 14:07:01;;;;;;;2.88;2.10;;;;;;;;;;6269619;22;20065;-84
2021/06/28 14:09:31;;;;;;;2.67;2.40;;;;;;;;;;6272652;22;20023;-86
2021/06/28 14:11:57;;;;;;;3.78;2.38;;;;;;;;;;6273113;22;20093;-84
2021/06/28 14:14:24;;;;;;;3.78;2.67;;;;;;;;;;6273954;22;20094;-84
2021/06/28 14:16:59;;;;;;;5.15;2.63;;;;;;;;;;6249728;22;20101;-84
2021/06/28 14:19:26;;;;;;;3.45;2.90;;;;;;;;;;6248940;22;20461;-83
2021/06/28 14:21:53;;;;;;;3.28;2.70;;;;;;;;;;6250145;22;20274;-84
2021/06/28 14:24:30;;;;;;;3.28;2.97;;;;;;;;;;6248975;22;20058;-83
2021/06/28 14:27:02;;;;;;;2.65;2.45;;;;;;;;;;6250679;22;20073;-84
2021/06/28 14:29:33;;;;;;;3.35;2.78;;;;;;;;;;6276888;22;20203;-84
2021/06/28 14:32:00;;;;;;;2.60;2.40;;;;;;;;;;6251160;22;20032;-84
2021/06/28 14:34:28;;;;;;;6.57;2.58;;;;;;;;;;6249020;22;20079;-85
2021/06/28 14:36:57;;;;;;;4.45;2.60;;;;;;;;;;6250879;22;20034;-86
2021/06/28 14:39:26;;;;;;;3.35;2.67;;;;;;;;;;6243884;23;20031;-86
2021/06/28 14:41:57;;;;;;;2.78;2.55;;;;;;;;;;6218052;23;20034;-84
2021/06/28 14:44:26;;;;;;;3.20;2.70;;;;;;;;;;6242014;23;20032;-84
2021/06/28 14:46:54;;;;;;;4.55;3.22;;;;;;;;;;6216439;23;20072;-83
2021/06/28 14:49:21;;;;;;;3.92;3.03;;;;;;;;;;6241921;23;20155;-84
2021/06/28 14:51:48;;;;;;;4.13;2.95;;;;;;;;;;6248847;23;20032;-85
2021/06/28 14:54:16;;;;;;;5.88;3.20;;;;;;;;;;6224822;23;20043;-84
2021/06/28 14:56:42;;;;;;;6.03;3.28;;;;;;;;;;6252608;23;20028;-84
2021/06/28 14:59:09;;;;;;;4.15;3.10;;;;;;;;;;6222486;23;20085;-85
2021/06/28 15:01:36;;;;;;;5.40;3.30;;;;;;;;;;6221896;23;20024;-85